
Distance (Route):
Temperature : 26.1°C
Humidity : 40.8%
Pressure : 0hPa| Receiver | Date | Latitude | Longitude | Direction | Speed | Altitude | Climb | Temperature | Humidity | Pressure | Voltage | Killtimer | Uptime | BKT | XDATA |
|---|---|---|---|---|---|---|---|---|---|---|---|---|---|---|---|
| LZ4TU-5 | 2026-08-31 18:57:47 | 44.12616 | 23.04289 | 289° | 29km/h | 778m | -13.3m/s | 26.1°C | 40.8% | 0hPa | 0V | 00:00:00 | 00:00:00 | 00:00:00 | |
| LZ4TU-5 | 2026-08-31 18:57:42 | 44.12604 | 23.04341 | 290° | 29km/h | 841m | -13.4m/s | 25.5°C | 41.7% | 0hPa | 0V | 00:00:00 | 00:00:00 | 00:00:00 | |
| LZ4TU-5 | 2026-08-31 18:57:37 | 44.12592 | 23.04389 | 292° | 27km/h | 910m | -13.4m/s | 24.9°C | 42.5% | 0hPa | 0V | 00:00:00 | 00:00:00 | 00:00:00 | |
| LZ4TU-5 | 2026-08-31 18:57:32 | 44.12580 | 23.04432 | 291° | 24km/h | 980m | -13.4m/s | 24.3°C | 43.3% | 0hPa | 0V | 00:00:00 | 00:00:00 | 00:00:00 | |
| LZ4TU-5 | 2026-08-31 18:57:28 | 44.12573 | 23.04463 | 292° | 22km/h | 1035m | -13.4m/s | 23.9°C | 43.5% | 0hPa | 0V | 00:00:00 | 00:00:00 | 00:00:00 | |
| LZ4TU-5 | 2026-08-31 18:57:23 | 44.12564 | 23.04495 | 293° | 18km/h | 1104m | -13.4m/s | 23.4°C | 43.9% | 0hPa | 0V | 00:00:00 | 00:00:00 | 00:00:00 | |
| LZ4TU-5 | 2026-08-31 18:57:19 | 44.12556 | 23.04520 | 294° | 18km/h | 1155m | -13.6m/s | 22.9°C | 44.4% | 0hPa | 0V | 00:00:00 | 00:00:00 | 00:00:00 | |
| LZ4TU-5 | 2026-08-31 18:57:14 | 44.12547 | 23.04545 | 299° | 16km/h | 1210m | -13.5m/s | 22.4°C | 44.7% | 0hPa | 0V | 00:00:00 | 00:00:00 | 00:00:00 | |
| LZ4TU-5 | 2026-08-31 18:57:09 | 44.12537 | 23.04571 | 303° | 16km/h | 1278m | -13.5m/s | 21.9°C | 45.1% | 0hPa | 0V | 00:00:00 | 00:00:00 | 00:00:00 | |
| LZ4TU-5 | 2026-08-31 18:57:04 | 44.12525 | 23.04594 | 311° | 15km/h | 1347m | -13.4m/s | 21.4°C | 45.3% | 0hPa | 0V | 00:00:00 | 00:00:00 | 00:00:00 | |
| LZ4TU-5 | 2026-08-31 18:56:59 | 44.12511 | 23.04613 | 323° | 15km/h | 1416m | -13.5m/s | 20.8°C | 45.8% | 0hPa | 0V | 00:00:00 | 00:00:00 | 00:00:00 | |
| LZ4TU-5 | 2026-08-31 18:56:54 | 44.12498 | 23.04625 | 338° | 13km/h | 1485m | -13.4m/s | 20.4°C | 45.0% | 0hPa | 0V | 00:00:00 | 00:00:00 | 00:00:00 | |
| LZ4TU-5 | 2026-08-31 18:56:50 | 44.12484 | 23.04631 | 350° | 13km/h | 1540m | -13.6m/s | 20.0°C | 46.2% | 0hPa | 0V | 00:00:00 | 00:00:00 | 00:00:00 | |
| LZ4TU-5 | 2026-08-31 18:56:46 | 44.12471 | 23.04634 | 357° | 13km/h | 1597m | -13.6m/s | 19.7°C | 47.1% | 0hPa | 0V | 00:00:00 | 00:00:00 | 00:00:00 | |
| LZ4TU-5 | 2026-08-31 18:56:41 | 44.12453 | 23.04636 | 5° | 13km/h | 1667m | -13.7m/s | 19.1°C | 47.8% | 0hPa | 0V | 00:00:00 | 00:00:00 | 00:00:00 | |
| LZ4TU-5 | 2026-08-31 18:56:36 | 44.12437 | 23.04632 | 18° | 15km/h | 1736m | -13.7m/s | 18.5°C | 50.7% | 0hPa | 0V | 00:00:00 | 00:00:00 | 00:00:00 | |
| LZ4TU-5 | 2026-08-31 18:56:32 | 44.12423 | 23.04625 | 24° | 15km/h | 1786m | -13.8m/s | 18.0°C | 53.5% | 0hPa | 0V | 00:00:00 | 00:00:00 | 00:00:00 | |
| LZ4TU-5 | 2026-08-31 18:56:27 | 44.12407 | 23.04615 | 30° | 15km/h | 1857m | -13.8m/s | 17.4°C | 54.3% | 0hPa | 0V | 00:00:00 | 00:00:00 | 00:00:00 | |
| LZ4TU-5 | 2026-08-31 18:56:22 | 44.12392 | 23.04603 | 29° | 13km/h | 1928m | -13.8m/s | 16.9°C | 54.3% | 0hPa | 0V | 00:00:00 | 00:00:00 | 00:00:00 | |
| LZ4TU-5 | 2026-08-31 18:56:17 | 44.12378 | 23.04592 | 28° | 13km/h | 1999m | -13.8m/s | 16.3°C | 54.5% | 0hPa | 0V | 00:00:00 | 00:00:00 | 00:00:00 | |
| LZ4TU-5 | 2026-08-31 18:56:12 | 44.12366 | 23.04582 | 27° | 9km/h | 2067m | -14.1m/s | 15.7°C | 59.0% | 0hPa | 0V | 00:00:00 | 00:00:00 | 00:00:00 | |
| LZ4TU-5 | 2026-08-31 18:56:07 | 44.12356 | 23.04576 | 25° | 7km/h | 2132m | -13.9m/s | 15.0°C | 61.3% | 0hPa | 0V | 00:00:00 | 00:00:00 | 00:00:00 | |
| LZ4TU-5 | 2026-08-31 18:56:03 | 44.12350 | 23.04572 | 50° | 4km/h | 2190m | -13.8m/s | 14.6°C | 62.8% | 0hPa | 0V | 00:00:00 | 00:00:00 | 00:00:00 | |
| LZ4TU-5 | 2026-08-31 18:55:58 | 44.12349 | 23.04568 | 94° | 4km/h | 2261m | -13.6m/s | 14.1°C | 64.1% | 0hPa | 0V | 00:00:00 | 00:00:00 | 00:00:00 | |
| LZ4TU-5 | 2026-08-31 18:55:53 | 44.12353 | 23.04562 | 144° | 5km/h | 2331m | -13.7m/s | 13.8°C | 64.7% | 0hPa | 0V | 00:00:00 | 00:00:00 | 00:00:00 | |
| LZ4TU-5 | 2026-08-31 18:55:48 | 44.12358 | 23.04554 | 121° | 7km/h | 2398m | -13.5m/s | 13.3°C | 64.9% | 0hPa | 0V | 00:00:00 | 00:00:00 | 00:00:00 | |
| LZ4TU-5 | 2026-08-31 18:55:43 | 44.12361 | 23.04540 | 96° | 9km/h | 2462m | -13.6m/s | 12.8°C | 66.5% | 0hPa | 0V | 00:00:00 | 00:00:00 | 00:00:00 | |
| LZ4TU-5 | 2026-08-31 18:55:39 | 44.12362 | 23.04527 | 92° | 11km/h | 2519m | -13.8m/s | 12.3°C | 68.3% | 0hPa | 0V | 00:00:00 | 00:00:00 | 00:00:00 | |
| LZ4TU-5 | 2026-08-31 18:55:34 | 44.12363 | 23.04506 | 97° | 13km/h | 2592m | -13.8m/s | 11.7°C | 70.4% | 0hPa | 0V | 00:00:00 | 00:00:00 | 00:00:00 | |
| LZ4TU-5 | 2026-08-31 18:55:29 | 44.12365 | 23.04486 | 97° | 13km/h | 2665m | -13.8m/s | 11.1°C | 71.4% | 0hPa | 0V | 00:00:00 | 00:00:00 | 00:00:00 | |
| LZ4TU-5 | 2026-08-31 18:55:24 | 44.12368 | 23.04464 | 102° | 11km/h | 2735m | -13.4m/s | 10.6°C | 70.9% | 0hPa | 0V | 00:00:00 | 00:00:00 | 00:00:00 | |
| LZ4TU-5 | 2026-08-31 18:55:19 | 44.12370 | 23.04445 | 100° | 9km/h | 2794m | -13.1m/s | 10.0°C | 76.9% | 0hPa | 0V | 00:00:00 | 00:00:00 | 00:00:00 | |
| LZ4TU-5 | 2026-08-31 18:55:14 | 44.12373 | 23.04430 | 110° | 9km/h | 2865m | -12.6m/s | 9.4°C | 82.4% | 0hPa | 0V | 00:00:00 | 00:00:00 | 00:00:00 | |
| LZ4TU-5 | 2026-08-31 18:55:09 | 44.12375 | 23.04416 | 98° | 9km/h | 2935m | -13.1m/s | 8.7°C | 88.0% | 0hPa | 0V | 00:00:00 | 00:00:00 | 00:00:00 | |
| LZ4TU-5 | 2026-08-31 18:55:04 | 44.12375 | 23.04401 | 81° | 9km/h | 3003m | -13.1m/s | 8.1°C | 93.7% | 0hPa | 0V | 00:00:00 | 00:00:00 | 00:00:00 | |
| LZ4TU-5 | 2026-08-31 18:55:00 | 44.12371 | 23.04386 | 70° | 13km/h | 3058m | -13.2m/s | 7.6°C | 97.1% | 0hPa | 0V | 00:00:00 | 00:00:00 | 00:00:00 | |
| LZ4TU-5 | 2026-08-31 18:54:55 | 44.12365 | 23.04364 | 69° | 15km/h | 3124m | -13.5m/s | 7.0°C | 97.4% | 0hPa | 0V | 00:00:00 | 00:00:00 | 00:00:00 | |
| LZ4TU-5 | 2026-08-31 18:54:50 | 44.12357 | 23.04334 | 73° | 16km/h | 3179m | -13.7m/s | 6.4°C | 96.9% | 0hPa | 0V | 00:00:00 | 00:00:00 | 00:00:00 | |
| LZ4TU-5 | 2026-08-31 18:54:46 | 44.12354 | 23.04311 | 84° | 18km/h | 3237m | -13.7m/s | 6.1°C | 96.0% | 0hPa | 0V | 00:00:00 | 00:00:00 | 00:00:00 | |
| LZ4TU-5 | 2026-08-31 18:54:42 | 44.12355 | 23.04287 | 96° | 16km/h | 3295m | -13.3m/s | 5.7°C | 94.1% | 0hPa | 0V | 00:00:00 | 00:00:00 | 00:00:00 | |
| LZ4TU-5 | 2026-08-31 18:54:37 | 44.12358 | 23.04259 | 106° | 16km/h | 3369m | -13.8m/s | 5.4°C | 91.8% | 0hPa | 0V | 00:00:00 | 00:00:00 | 00:00:00 | |
| LZ4TU-5 | 2026-08-31 18:54:33 | 44.12363 | 23.04238 | 105° | 15km/h | 3427m | -13.9m/s | 5.0°C | 89.9% | 0hPa | 0V | 00:00:00 | 00:00:00 | 00:00:00 | |
| LZ4TU-5 | 2026-08-31 18:54:29 | 44.12367 | 23.04219 | 111° | 15km/h | 3486m | -14.2m/s | 4.7°C | 85.6% | 0hPa | 0V | 00:00:00 | 00:00:00 | 00:00:00 | |
| LZ4TU-5 | 2026-08-31 18:54:24 | 44.12373 | 23.04195 | 115° | 15km/h | 3561m | -13.8m/s | 4.2°C | 76.9% | 0hPa | 0V | 00:00:00 | 00:00:00 | 00:00:00 | |
| LZ4TU-5 | 2026-08-31 18:54:14 | 44.12386 | 23.04145 | 104° | 16km/h | 3711m | -14.1m/s | 3.4°C | 56.9% | 0hPa | 0V | 00:00:00 | 00:00:00 | 00:00:00 | |
| LZ4TU-5 | 2026-08-31 18:54:10 | 44.12390 | 23.04122 | 107° | 18km/h | 3771m | -14.8m/s | 3.1°C | 48.3% | 0hPa | 0V | 00:00:00 | 00:00:00 | 00:00:00 | |
| LZ4TU-5 | 2026-08-31 18:54:05 | 44.12399 | 23.04091 | 112° | 20km/h | 3846m | -14.5m/s | 2.7°C | 43.6% | 0hPa | 0V | 00:00:00 | 00:00:00 | 00:00:00 | |
| LZ4TU-5 | 2026-08-31 18:54:01 | 44.12408 | 23.04066 | 121° | 22km/h | 3907m | -14.4m/s | 2.3°C | 39.3% | 0hPa | 0V | 00:00:00 | 00:00:00 | 00:00:00 | |
| LZ4TU-5 | 2026-08-31 18:53:56 | 44.12425 | 23.04030 | 127° | 29km/h | 3981m | -14.3m/s | 2.2°C | 30.1% | 0hPa | 0V | 00:00:00 | 00:00:00 | 00:00:00 | |
| LZ4TU-5 | 2026-08-31 18:53:51 | 44.12449 | 23.03984 | 125° | 37km/h | 4049m | -14.3m/s | 2.0°C | 23.1% | 0hPa | 0V | 00:00:00 | 00:00:00 | 00:00:00 | |
| LZ4TU-5 | 2026-08-31 18:53:47 | 44.12467 | 23.03940 | 125° | 37km/h | 4097m | -14.4m/s | 2.0°C | 19.7% | 0hPa | 0V | 00:00:00 | 00:00:00 | 00:00:00 | |
| LZ4TU-5 | 2026-08-31 18:53:43 | 44.12492 | 23.03889 | 123° | 35km/h | 4172m | -14.6m/s | 1.5°C | 33.8% | 0hPa | 0V | 00:00:00 | 00:00:00 | 00:00:00 | |
| LZ4TU-5 | 2026-08-31 18:53:38 | 44.12510 | 23.03847 | 118° | 33km/h | 4232m | -14.7m/s | 1.2°C | 30.5% | 0hPa | 0V | 00:00:00 | 00:00:00 | 00:00:00 | |
| LZ4TU-5 | 2026-08-31 18:53:33 | 44.12527 | 23.03794 | 112° | 35km/h | 4309m | -15.0m/s | 0.8°C | 29.1% | 0hPa | 0V | 00:00:00 | 00:00:00 | 00:00:00 | |
| LZ4TU-5 | 2026-08-31 18:53:28 | 44.12541 | 23.03737 | 108° | 35km/h | 4386m | -15.2m/s | 0.2°C | 47.9% | 0hPa | 0V | 00:00:00 | 00:00:00 | 00:00:00 | |
| LZ4TU-5 | 2026-08-31 18:53:23 | 44.12554 | 23.03676 | 103° | 37km/h | 4463m | -15.6m/s | -0.5°C | 46.5% | 0hPa | 0V | 00:00:00 | 00:00:00 | 00:00:00 | |
| LZ4TU-5 | 2026-08-31 18:53:19 | 44.12561 | 23.03624 | 100° | 38km/h | 4526m | -15.6m/s | -1.1°C | 50.8% | 0hPa | 0V | 00:00:00 | 00:00:00 | 00:00:00 | |
| LZ4TU-5 | 2026-08-31 18:53:14 | 44.12566 | 23.03556 | 100° | 42km/h | 4604m | -15.6m/s | -1.8°C | 60.7% | 0hPa | 0V | 00:00:00 | 00:00:00 | 00:00:00 | |
| LZ4TU-5 | 2026-08-31 18:53:10 | 44.12573 | 23.03495 | 102° | 44km/h | 4661m | -16.0m/s | -2.4°C | 62.4% | 0hPa | 0V | 00:00:00 | 00:00:00 | 00:00:00 | |
| LZ4TU-5 | 2026-08-31 18:53:06 | 44.12579 | 23.03435 | 101° | 46km/h | 4720m | -15.9m/s | -2.7°C | 51.8% | 0hPa | 0V | 00:00:00 | 00:00:00 | 00:00:00 | |
| LZ4TU-5 | 2026-08-31 18:53:01 | 44.12588 | 23.03353 | 98° | 47km/h | 4799m | -15.8m/s | -3.5°C | 71.4% | 0hPa | 0V | 00:00:00 | 00:00:00 | 00:00:00 | |
| LZ4TU-5 | 2026-08-31 18:52:56 | 44.12594 | 23.03269 | 95° | 46km/h | 4881m | -16.1m/s | -3.8°C | 64.7% | 0hPa | 0V | 00:00:00 | 00:00:00 | 00:00:00 | |
| LZ4TU-5 | 2026-08-31 18:52:51 | 44.12599 | 23.03188 | 95° | 46km/h | 4963m | -15.9m/s | -4.5°C | 58.5% | 0hPa | 0V | 00:00:00 | 00:00:00 | 00:00:00 | |
| LZ4TU-5 | 2026-08-31 18:52:46 | 44.12601 | 23.03112 | 89° | 42km/h | 5044m | -15.9m/s | -4.7°C | 41.5% | 0hPa | 0V | 00:00:00 | 00:00:00 | 00:00:00 | |
| LZ4TU-5 | 2026-08-31 18:51:30 | 44.12648 | 23.02067 | 99° | 42km/h | 6322m | -17.8m/s | -9.3°C | 8.8% | 0hPa | 0V | 00:00:00 | 00:00:00 | 00:00:00 | |
| LZ4TU-5 | 2026-08-31 18:51:26 | 44.12655 | 23.02008 | 99° | 42km/h | 6394m | -18.4m/s | -9.6°C | 8.2% | 0hPa | 0V | 00:00:00 | 00:00:00 | 00:00:00 | |
| LZ4TU-5 | 2026-08-31 18:50:04 | 44.12878 | 23.00783 | 108° | 46km/h | 7931m | -19.6m/s | -20.3°C | 17.8% | 0hPa | 0V | 00:00:00 | 00:00:00 | 00:00:00 | |
| LZ4TU-5 | 2026-08-31 18:50:00 | 44.12892 | 23.00718 | 110° | 44km/h | 8010m | -19.4m/s | -21.0°C | 0% | 0hPa | 0V | 00:00:00 | 00:00:00 | 00:00:00 | |
| LZ4TU-5 | 2026-08-31 18:48:41 | 44.13293 | 22.99436 | 119° | 66km/h | 9579m | -21.2m/s | -33.5°C | 22.3% | 0hPa | 0V | 00:00:00 | 00:00:00 | 00:00:00 | |
| LZ4TU-5 | 2026-08-31 18:48:36 | 44.13332 | 22.99333 | 118° | 68km/h | 9686m | -21.0m/s | -34.4°C | 25.0% | 0hPa | 0V | 00:00:00 | 00:00:00 | 00:00:00 | |
| LZ4TU-5 | 2026-08-31 18:47:13 | 44.14101 | 22.97328 | 121° | 89km/h | 11517m | -23.3m/s | -50.2°C | 36.4% | 0hPa | 0V | 00:00:00 | 00:00:00 | 00:00:00 | |
| LZ4TU-5 | 2026-08-31 18:47:08 | 44.14158 | 22.97191 | 121° | 88km/h | 11638m | -23.5m/s | -51.2°C | 35.1% | 0hPa | 0V | 00:00:00 | 00:00:00 | 00:00:00 | |
| LZ4TU-5 | 2026-08-31 18:45:53 | 44.14888 | 22.95534 | 105° | 42km/h | 13530m | -27.1m/s | -60.2°C | 6.7% | 0hPa | 0V | 00:00:00 | 00:00:00 | 00:00:00 | |
| LZ4TU-5 | 2026-08-31 18:45:49 | 44.14902 | 22.95481 | 109° | 44km/h | 13636m | -27.2m/s | -60.6°C | 0% | 0hPa | 0V | 00:00:00 | 00:00:00 | 00:00:00 | |
| LZ4TU-5 | 2026-08-31 18:44:43 | 44.15011 | 22.94367 | 104° | 51km/h | 15540m | -31.2m/s | -60.5°C | 0.0% | 0hPa | 0V | 00:00:00 | 00:00:00 | 00:00:00 | |
| LZ4TU-5 | 2026-08-31 18:44:38 | 44.15023 | 22.94278 | 101° | 51km/h | 15697m | -31.4m/s | -60.0°C | 0.0% | 0hPa | 0V | 00:00:00 | 00:00:00 | 00:00:00 | |
| LZ4TU-5 | 2026-08-31 18:43:23 | 44.14957 | 22.93510 | 85° | 24km/h | 18311m | -39.8m/s | -60.2°C | 0.0% | 0hPa | 0V | 00:00:00 | 00:00:00 | 00:00:00 | |
| LZ4TU-5 | 2026-08-31 18:43:18 | 44.14956 | 22.93473 | 85° | 18km/h | 18508m | -40.1m/s | -57.0°C | 0.0% | 0hPa | 0V | 00:00:00 | 00:00:00 | 00:00:00 | |
| LZ4TU-5 | 2026-08-31 18:42:03 | 44.14847 | 22.93243 | 182° | 7km/h | 21862m | -53.6m/s | -54.5°C | 0.0% | 0hPa | 0V | 00:00:00 | 00:00:00 | 00:00:00 | |
| LZ4TU-5 | 2026-08-31 18:41:58 | 44.14855 | 22.93245 | 244° | 4km/h | 22121m | -54.7m/s | -54.8°C | 0.0% | 0hPa | 0V | 00:00:00 | 00:00:00 | 00:00:00 | |
| LZ4TU-5 | 2026-08-31 18:40:43 | 44.14919 | 22.93445 | 86° | 9km/h | 26762m | -74.4m/s | -46.0°C | 0.0% | 0hPa | 0V | 00:00:00 | 00:00:00 | 00:00:00 | |
| LZ4TU-5 | 2026-08-31 18:40:38 | 44.14923 | 22.93431 | 5° | 37km/h | 27141m | -67.0m/s | -46.3°C | 0.0% | 0hPa | 0V | 00:00:00 | 00:00:00 | 00:00:00 | |
| LZ4TU-5 | 2026-08-31 18:39:25 | 44.15058 | 22.93558 | 277° | 18km/h | 31528m | 8.2m/s | -41.0°C | 0.0% | 0hPa | 0V | 00:00:00 | 00:00:00 | 00:00:00 | |
| LZ4TU-5 | 2026-08-31 18:39:20 | 44.15054 | 22.93602 | 288° | 9km/h | 31490m | 6.5m/s | -40.8°C | 0% | 0hPa | 0V | 00:00:00 | 00:00:00 | 00:00:00 | |
| LZ3DJ-18 | 2026-08-31 18:38:43 | 44.15051 | 22.93718 | 254° | 42km/h | 31240m | 7.6m/s | -40.7°C | 0.0% | 0hPa | 0V | 00:00:00 | 00:00:00 | 00:00:00 | |
| LZ4TU-5 | 2026-08-31 18:38:07 | 44.15175 | 22.93839 | 117° | 16km/h | 30959m | 6.8m/s | -42.3°C | 0.0% | 0hPa | 0V | 00:00:00 | 00:00:00 | 00:00:00 | |
| LZ4TU-5 | 2026-08-31 18:38:03 | 44.15177 | 22.93822 | 271° | 16km/h | 30928m | 6.3m/s | -42.8°C | 0.0% | 0hPa | 0V | 00:00:00 | 00:00:00 | 00:00:00 | |
| LZ3DJ-18 | 2026-08-31 18:37:31 | 44.15207 | 22.93949 | 249° | 18km/h | 30697m | 5.4m/s | -42.4°C | 0.0% | 0hPa | 0V | 00:00:00 | 00:00:00 | 00:00:00 | |
| LZ3DJ-18 | 2026-08-31 18:37:07 | 44.15273 | 22.94106 | 243° | 26km/h | 30535m | 7.2m/s | -41.6°C | 0.0% | 0hPa | 0V | 00:00:00 | 00:00:00 | 00:00:00 | |
| LZ4TU-5 | 2026-08-31 18:36:48 | 44.15345 | 22.94273 | 232° | 22km/h | 30399m | 6.5m/s | -41.0°C | 0.0% | 0hPa | 0V | 00:00:00 | 00:00:00 | 00:00:00 | |
| LZ3DJ-18 | 2026-08-31 18:36:46 | 44.15354 | 22.94287 | 226° | 40km/h | 30384m | 6.7m/s | -40.9°C | 0.0% | 0hPa | 0V | 00:00:00 | 00:00:00 | 00:00:00 | |
| LZ4TU-5 | 2026-08-31 18:36:44 | 44.15369 | 22.94308 | 225° | 46km/h | 30370m | 6.7m/s | -40.9°C | 0.0% | 0hPa | 0V | 00:00:00 | 00:00:00 | 00:00:00 | |
| LZ3DJ-18 | 2026-08-31 18:36:02 | 44.15584 | 22.94474 | 222° | 18km/h | 30074m | 6.7m/s | -40.8°C | 0.0% | 0hPa | 0V | 00:00:00 | 00:00:00 | 00:00:00 | |
| LZ3DJ-18 | 2026-08-31 18:35:38 | 44.15611 | 22.94503 | 251° | 15km/h | 29908m | 6.8m/s | -42.8°C | 0.0% | 0hPa | 0V | 00:00:00 | 00:00:00 | 00:00:00 | |
| LZ4TU-5 | 2026-08-31 18:35:28 | 44.15612 | 22.94506 | 319° | 22km/h | 29839m | 5.3m/s | -43.7°C | 0.0% | 0hPa | 0V | 00:00:00 | 00:00:00 | 00:00:00 | |
| LZ4TU-5 | 2026-08-31 18:35:24 | 44.15613 | 22.94518 | 304° | 20km/h | 29813m | 6.4m/s | -43.7°C | 0.0% | 0hPa | 0V | 00:00:00 | 00:00:00 | 00:00:00 | |
| OM5KV | 2026-08-31 18:34:43 | 44.15551 | 22.94453 | 5° | 7km/h | 29531m | 6.1m/s | -44.2°C | 0.0% | 0hPa | 0V | 00:00:00 | 00:00:00 | 00:00:00 | |
| OM5KV | 2026-08-31 18:34:35 | 44.15520 | 22.94480 | 353° | 11km/h | 29484m | 6.3m/s | -44.5°C | 0.0% | 0hPa | 0V | 00:00:00 | 00:00:00 | 00:00:00 | |
| OM5KV | 2026-08-31 18:34:29 | 44.15509 | 22.94466 | 115° | 9km/h | 29449m | 6.7m/s | -44.6°C | 0.0% | 0hPa | 0V | 00:00:00 | 00:00:00 | 00:00:00 | |
| OM5KV | 2026-08-31 18:34:24 | 44.15511 | 22.94460 | 5° | 4km/h | 29415m | 7.2m/s | -45.0°C | 0.0% | 0hPa | 0V | 00:00:00 | 00:00:00 | 00:00:00 | |
| OM5KV | 2026-08-31 18:34:18 | 44.15514 | 22.94445 | 102° | 15km/h | 29371m | 8.6m/s | -44.9°C | 0.0% | 0hPa | 0V | 00:00:00 | 00:00:00 | 00:00:00 | |
| OM5KV | 2026-08-31 18:34:15 | 44.15521 | 22.94424 | 157° | 15km/h | 29344m | 8.4m/s | -44.9°C | 0.0% | 0hPa | 0V | 00:00:00 | 00:00:00 | 00:00:00 | |
| LZ4TU-5 | 2026-08-31 18:34:09 | 44.15534 | 22.94395 | 114° | 7km/h | 29300m | 6.7m/s | -44.8°C | 0.0% | 0hPa | 0V | 00:00:00 | 00:00:00 | 00:00:00 | |
| OM5KV | 2026-08-31 18:34:07 | 44.15534 | 22.94388 | 83° | 15km/h | 29287m | 7.1m/s | -44.9°C | 0.0% | 0hPa | 0V | 00:00:00 | 00:00:00 | 00:00:00 | |
| OM5KV | 2026-08-31 18:34:06 | 44.15532 | 22.94383 | 84° | 20km/h | 29279m | 6.9m/s | -44.9°C | 0.0% | 0hPa | 0V | 00:00:00 | 00:00:00 | 00:00:00 | |
| LZ4TU-5 | 2026-08-31 18:34:05 | 44.15531 | 22.94376 | 78° | 20km/h | 29274m | 3.8m/s | -44.9°C | 0.0% | 0hPa | 0V | 00:00:00 | 00:00:00 | 00:00:00 | |
| OM5KV | 2026-08-31 18:34:00 | 44.15533 | 22.94363 | 155° | 11km/h | 29241m | 8.6m/s | -44.9°C | 0.0% | 0hPa | 0V | 00:00:00 | 00:00:00 | 00:00:00 | |
| OM5KV | 2026-08-31 18:33:50 | 44.15521 | 22.94328 | 59° | 4km/h | 29170m | 7.7m/s | -44.8°C | 0.0% | 0hPa | 0V | 00:00:00 | 00:00:00 | 00:00:00 | |
| OM5KV | 2026-08-31 18:33:43 | 44.15509 | 22.94307 | 69° | 22km/h | 29118m | 7.2m/s | -44.9°C | 0.0% | 0hPa | 0V | 00:00:00 | 00:00:00 | 00:00:00 | |
| OM5KV | 2026-08-31 18:33:38 | 44.15492 | 22.94277 | 31° | 5km/h | 29084m | 7.0m/s | -44.9°C | 0.0% | 0hPa | 0V | 00:00:00 | 00:00:00 | 00:00:00 | |
| OM5KV | 2026-08-31 18:33:29 | 44.15471 | 22.94263 | 11° | 16km/h | 29021m | 6.8m/s | -44.6°C | 0.0% | 0hPa | 0V | 00:00:00 | 00:00:00 | 00:00:00 | |
| OM5KV | 2026-08-31 18:33:22 | 44.15462 | 22.94256 | 139° | 11km/h | 28970m | 6.8m/s | -44.5°C | 0.0% | 0hPa | 0V | 00:00:00 | 00:00:00 | 00:00:00 | |
| OM5KV | 2026-08-31 18:33:20 | 44.15461 | 22.94253 | 7° | 13km/h | 28955m | 6.3m/s | -44.6°C | 0.0% | 0hPa | 0V | 00:00:00 | 00:00:00 | 00:00:00 | |
| OM5KV | 2026-08-31 18:33:07 | 44.15467 | 22.94258 | 70° | 16km/h | 28863m | 6.8m/s | -44.9°C | 0.0% | 0hPa | 0V | 00:00:00 | 00:00:00 | 00:00:00 | |
| OM5KV | 2026-08-31 18:33:01 | 44.15465 | 22.94258 | 0° | 0km/h | 28820m | 6.4m/s | -44.8°C | 0.0% | 0hPa | 0V | 00:00:00 | 00:00:00 | 00:00:00 | |
| OM5KV | 2026-08-31 18:32:54 | 44.15458 | 22.94253 | 23° | 27km/h | 28777m | 7.0m/s | -44.9°C | 0.0% | 0hPa | 0V | 00:00:00 | 00:00:00 | 00:00:00 | |
| LZ4TU-5 | 2026-08-31 18:32:51 | 44.15447 | 22.94247 | 154° | 16km/h | 28755m | 7.2m/s | -45.0°C | 0.0% | 0hPa | 0V | 00:00:00 | 00:00:00 | 00:00:00 | |
| OM5KV | 2026-08-31 18:32:50 | 44.15449 | 22.94246 | 132° | 44km/h | 28748m | 6.9m/s | -45.0°C | 0.0% | 0hPa | 0V | 00:00:00 | 00:00:00 | 00:00:00 | |
| OM5KV | 2026-08-31 18:32:48 | 44.15460 | 22.94229 | 146° | 22km/h | 28732m | 5.4m/s | -45.0°C | 0.0% | 0hPa | 0V | 00:00:00 | 00:00:00 | 00:00:00 | |
| LZ4TU-5 | 2026-08-31 18:32:46 | 44.15468 | 22.94219 | 132° | 15km/h | 28721m | 5.5m/s | -45.0°C | 0.0% | 0hPa | 0V | 00:00:00 | 00:00:00 | 00:00:00 | |
| LZ4TU-5 | 2026-08-31 18:31:24 | 44.15406 | 22.93941 | 59° | 15km/h | 28159m | 7.1m/s | -47.0°C | 0.0% | 0hPa | 0V | 00:00:00 | 00:00:00 | 00:00:00 | |
| LZ4TU-5 | 2026-08-31 18:31:19 | 44.15412 | 22.93927 | 219° | 22km/h | 28124m | 7.4m/s | -46.9°C | 0.0% | 0hPa | 0V | 00:00:00 | 00:00:00 | 00:00:00 | |
| LZ4TU-5 | 2026-08-31 18:30:03 | 44.15611 | 22.93703 | 348° | 22km/h | 27581m | 6.1m/s | -46.7°C | 0.0% | 0hPa | 0V | 00:00:00 | 00:00:00 | 00:00:00 | |
| LZ4TU-5 | 2026-08-31 18:29:58 | 44.15608 | 22.93700 | 111° | 16km/h | 27545m | 6.6m/s | -47.0°C | 0.0% | 0hPa | 0V | 00:00:00 | 00:00:00 | 00:00:00 | |
| LZ4TU-5 | 2026-08-31 18:29:53 | 44.15613 | 22.93677 | 105° | 13km/h | 27509m | 9.1m/s | -47.3°C | 0.0% | 0hPa | 0V | 00:00:00 | 00:00:00 | 00:00:00 | |
| LZ4TU-5 | 2026-08-31 18:28:40 | 44.15638 | 22.93546 | 190° | 15km/h | 27006m | 7.6m/s | -48.8°C | 0.0% | 0hPa | 0V | 00:00:00 | 00:00:00 | 00:00:00 | |
| LZ4TU-5 | 2026-08-31 18:28:35 | 44.15640 | 22.93520 | 67° | 18km/h | 26970m | 5.8m/s | -48.6°C | 0.0% | 0hPa | 0V | 00:00:00 | 00:00:00 | 00:00:00 | |
| LZ4TU-5 | 2026-08-31 18:27:19 | 44.15598 | 22.93438 | 0° | 0km/h | 26451m | 7.3m/s | -48.3°C | 0.0% | 0hPa | 0V | 00:00:00 | 00:00:00 | 00:00:00 | |
| LZ4TU-5 | 2026-08-31 18:27:14 | 44.15572 | 22.93448 | 345° | 29km/h | 26421m | 4.3m/s | -48.6°C | 0.0% | 0hPa | 0V | 00:00:00 | 00:00:00 | 00:00:00 | |
| LZ4TU-5 | 2026-08-31 18:25:58 | 44.15492 | 22.93657 | 196° | 5km/h | 25905m | 9.6m/s | -49.6°C | 0.0% | 0hPa | 0V | 00:00:00 | 00:00:00 | 00:00:00 | |
| LZ4TU-5 | 2026-08-31 18:25:54 | 44.15491 | 22.93683 | 290° | 27km/h | 25873m | 8.6m/s | -49.8°C | 0.0% | 0hPa | 0V | 00:00:00 | 00:00:00 | 00:00:00 | |
| LZ4TU-5 | 2026-08-31 18:24:38 | 44.15526 | 22.94096 | 242° | 24km/h | 25390m | 4.4m/s | -50.9°C | 0.0% | 0hPa | 0V | 00:00:00 | 00:00:00 | 00:00:00 | |
| LZ4TU-5 | 2026-08-31 18:24:34 | 44.15538 | 22.94106 | 151° | 13km/h | 25358m | 6.0m/s | -50.9°C | 0% | 0hPa | 0V | 00:00:00 | 00:00:00 | 00:00:00 | |
| LZ4TU-5 | 2026-08-31 18:23:21 | 44.15550 | 22.94324 | 305° | 24km/h | 24875m | 8.7m/s | -52.2°C | 0.0% | 0hPa | 0V | 00:00:00 | 00:00:00 | 00:00:00 | |
| LZ4TU-5 | 2026-08-31 18:23:17 | 44.15538 | 22.94356 | 275° | 22km/h | 24847m | 5.7m/s | -52.4°C | 0.0% | 0hPa | 0V | 00:00:00 | 00:00:00 | 00:00:00 | |
| LZ4TU-5 | 2026-08-31 18:22:03 | 44.15499 | 22.94872 | 242° | 15km/h | 24365m | 8.4m/s | -52.8°C | 0.0% | 0hPa | 0V | 00:00:00 | 00:00:00 | 00:00:00 | |
| LZ4TU-5 | 2026-08-31 18:21:58 | 44.15517 | 22.94903 | 234° | 26km/h | 24330m | 8.4m/s | -53.0°C | 0.0% | 0hPa | 0V | 00:00:00 | 00:00:00 | 00:00:00 | |
| LZ4TU-5 | 2026-08-31 18:20:43 | 44.15738 | 22.95149 | 155° | 15km/h | 23837m | 4.9m/s | -53.7°C | 0.0% | 0hPa | 0V | 00:00:00 | 00:00:00 | 00:00:00 | |
| LZ4TU-5 | 2026-08-31 18:20:39 | 44.15741 | 22.95158 | 279° | 20km/h | 23809m | 7.3m/s | -53.6°C | 0.0% | 0hPa | 0V | 00:00:00 | 00:00:00 | 00:00:00 | |
| LZ4TU-5 | 2026-08-31 18:19:31 | 44.15852 | 22.95287 | 315° | 11km/h | 23365m | 6.8m/s | -54.4°C | 0.0% | 0hPa | 0V | 00:00:00 | 00:00:00 | 00:00:00 | |
| LZ4TU-5 | 2026-08-31 18:19:27 | 44.15849 | 22.95290 | 174° | 7km/h | 23340m | 7.6m/s | -54.6°C | 0.0% | 0hPa | 0V | 00:00:00 | 00:00:00 | 00:00:00 | |
| LZ4TU-5 | 2026-08-31 18:18:11 | 44.15893 | 22.95620 | 274° | 16km/h | 22862m | 6.6m/s | -54.2°C | 0.0% | 0hPa | 0V | 00:00:00 | 00:00:00 | 00:00:00 | |
| LZ4TU-5 | 2026-08-31 18:18:07 | 44.15897 | 22.95645 | 244° | 13km/h | 22838m | 4.1m/s | -54.2°C | 0% | 0hPa | 0V | 00:00:00 | 00:00:00 | 00:00:00 | |
| LZ4TU-5 | 2026-08-31 18:16:54 | 44.16018 | 22.95688 | 263° | 4km/h | 22371m | 6.2m/s | -55.3°C | 0.0% | 0hPa | 0V | 00:00:00 | 00:00:00 | 00:00:00 | |
| LZ4TU-5 | 2026-08-31 18:16:50 | 44.16018 | 22.95675 | 100° | 16km/h | 22346m | 4.2m/s | -55.3°C | 0.0% | 0hPa | 0V | 00:00:00 | 00:00:00 | 00:00:00 | |
| LZ4TU-5 | 2026-08-31 18:15:36 | 44.16041 | 22.95650 | 161° | 9km/h | 21882m | 9.5m/s | -55.4°C | 0.0% | 0hPa | 0V | 00:00:00 | 00:00:00 | 00:00:00 | |
| LZ4TU-5 | 2026-08-31 18:15:32 | 44.16042 | 22.95634 | 118° | 18km/h | 21858m | 4.6m/s | -55.4°C | 0.0% | 0hPa | 0V | 00:00:00 | 00:00:00 | 00:00:00 | |
| LZ4TU-5 | 2026-08-31 18:14:17 | 44.16128 | 22.95257 | 106° | 33km/h | 21382m | 7.4m/s | -56.1°C | 0.0% | 0hPa | 0V | 00:00:00 | 00:00:00 | 00:00:00 | |
| LZ4TU-5 | 2026-08-31 18:14:12 | 44.16127 | 22.95224 | 347° | 18km/h | 21354m | 5.9m/s | -55.9°C | 0.0% | 0hPa | 0V | 00:00:00 | 00:00:00 | 00:00:00 | |
| LZ4TU-5 | 2026-08-31 18:12:51 | 44.15924 | 22.95039 | 356° | 24km/h | 20840m | 5.6m/s | -56.0°C | 0.0% | 0hPa | 0V | 00:00:00 | 00:00:00 | 00:00:00 | |
| LZ4TU-5 | 2026-08-31 18:12:47 | 44.15919 | 22.95030 | 126° | 16km/h | 20814m | 7.0m/s | -56.0°C | 0.0% | 0hPa | 0V | 00:00:00 | 00:00:00 | 00:00:00 | |
| LZ4TU-5 | 2026-08-31 18:11:31 | 44.15688 | 22.94842 | 20° | 4km/h | 20345m | 6.8m/s | -56.1°C | 0.0% | 0hPa | 0V | 00:00:00 | 00:00:00 | 00:00:00 | |
| LZ4TU-5 | 2026-08-31 18:11:27 | 44.15681 | 22.94840 | 258° | 9km/h | 20322m | 5.6m/s | -56.1°C | 0.0% | 0hPa | 0V | 00:00:00 | 00:00:00 | 00:00:00 | |
| LZ4TU-5 | 2026-08-31 18:10:15 | 44.15690 | 22.94625 | 51° | 11km/h | 19890m | 7.4m/s | -57.1°C | 0.0% | 0hPa | 0V | 00:00:00 | 00:00:00 | 00:00:00 | |
| LZ4TU-5 | 2026-08-31 18:10:10 | 44.15682 | 22.94588 | 71° | 18km/h | 19866m | 5.4m/s | -57.3°C | 0.0% | 0hPa | 0V | 00:00:00 | 00:00:00 | 00:00:00 | |
| LZ4TU-5 | 2026-08-31 18:08:49 | 44.15550 | 22.94445 | 38° | 16km/h | 19383m | 6.4m/s | -56.6°C | 0.0% | 0hPa | 0V | 00:00:00 | 00:00:00 | 00:00:00 | |
| LZ4TU-5 | 2026-08-31 18:08:44 | 44.15543 | 22.94438 | 244° | 5km/h | 19352m | 5.1m/s | -56.5°C | 0.0% | 0hPa | 0V | 00:00:00 | 00:00:00 | 00:00:00 | |
| LZ4TU-5 | 2026-08-31 18:07:30 | 44.15462 | 22.94127 | 55° | 26km/h | 18910m | 7.6m/s | -56.7°C | 0.0% | 0hPa | 0V | 00:00:00 | 00:00:00 | 00:00:00 | |
| LZ4TU-5 | 2026-08-31 18:07:25 | 44.15428 | 22.94100 | 36° | 31km/h | 18884m | 3.9m/s | -56.6°C | 0% | 0hPa | 0V | 00:00:00 | 00:00:00 | 00:00:00 | |
| LZ4TU-5 | 2026-08-31 18:05:59 | 44.15256 | 22.93504 | 67° | 33km/h | 18358m | 7.5m/s | -58.5°C | 0.0% | 0hPa | 0V | 00:00:00 | 00:00:00 | 00:00:00 | |
| LZ4TU-5 | 2026-08-31 18:05:54 | 44.15246 | 22.93447 | 82° | 26km/h | 18329m | 7.0m/s | -58.9°C | 0.0% | 0hPa | 0V | 00:00:00 | 00:00:00 | 00:00:00 | |
| LZ4TU-5 | 2026-08-31 18:04:39 | 44.14974 | 22.93032 | 29° | 13km/h | 17900m | 5.3m/s | -59.5°C | 0.6% | 0hPa | 0V | 00:00:00 | 00:00:00 | 00:00:00 | |
| LZ4TU-5 | 2026-08-31 18:04:35 | 44.14963 | 22.93020 | 57° | 16km/h | 17877m | 6.1m/s | -59.4°C | 0.6% | 0hPa | 0V | 00:00:00 | 00:00:00 | 00:00:00 | |
| LZ4TU-5 | 2026-08-31 18:03:19 | 44.15032 | 22.92458 | 91° | 40km/h | 17435m | 5.7m/s | -58.4°C | 1.5% | 0hPa | 0V | 00:00:00 | 00:00:00 | 00:00:00 | |
| LZ4TU-5 | 2026-08-31 18:03:14 | 44.15028 | 22.92384 | 91° | 40km/h | 17406m | 7.1m/s | -58.4°C | 0% | 0hPa | 0V | 00:00:00 | 00:00:00 | 00:00:00 | |
| LZ4TU-5 | 2026-08-31 18:02:00 | 44.14957 | 22.91402 | 90° | 38km/h | 16949m | 8.0m/s | -57.6°C | 2.8% | 0hPa | 0V | 00:00:00 | 00:00:00 | 00:00:00 | |
| LZ4TU-5 | 2026-08-31 18:01:55 | 44.14962 | 22.91342 | 110° | 31km/h | 16918m | 7.0m/s | -57.7°C | 3.0% | 0hPa | 0V | 00:00:00 | 00:00:00 | 00:00:00 | |
| LZ4TU-5 | 2026-08-31 18:00:41 | 44.14932 | 22.90384 | 71° | 35km/h | 16484m | 6.1m/s | -58.6°C | 4.7% | 0hPa | 0V | 00:00:00 | 00:00:00 | 00:00:00 | |
| LZ4TU-5 | 2026-08-31 18:00:36 | 44.14914 | 22.90333 | 55° | 37km/h | 16454m | 5.6m/s | -58.9°C | 4.9% | 0hPa | 0V | 00:00:00 | 00:00:00 | 00:00:00 | |
| LZ4TU-5 | 2026-08-31 17:59:12 | 44.14915 | 22.89412 | 113° | 29km/h | 15928m | 5.7m/s | -60.4°C | 8.0% | 0hPa | 0V | 00:00:00 | 00:00:00 | 00:00:00 | |
| LZ4TU-5 | 2026-08-31 17:59:07 | 44.14928 | 22.89354 | 111° | 49km/h | 15900m | 5.9m/s | -60.4°C | 8.2% | 0hPa | 0V | 00:00:00 | 00:00:00 | 00:00:00 | |
| LZ4TU-5 | 2026-08-31 17:57:53 | 44.15131 | 22.88086 | 100° | 49km/h | 15468m | 6.6m/s | -61.3°C | 11.4% | 0hPa | 0V | 00:00:00 | 00:00:00 | 00:00:00 | |
| LZ4TU-5 | 2026-08-31 17:57:48 | 44.15148 | 22.88008 | 112° | 57km/h | 15438m | 5.3m/s | -61.3°C | 11.6% | 0hPa | 0V | 00:00:00 | 00:00:00 | 00:00:00 | |
| LZ4TU-5 | 2026-08-31 17:56:31 | 44.15195 | 22.86689 | 76° | 49km/h | 15007m | 5.8m/s | -62.7°C | 15.5% | 0hPa | 0V | 00:00:00 | 00:00:00 | 00:00:00 | |
| LZ4TU-5 | 2026-08-31 17:56:27 | 44.15186 | 22.86628 | 91° | 40km/h | 14982m | 5.1m/s | -62.7°C | 15.8% | 0hPa | 0V | 00:00:00 | 00:00:00 | 00:00:00 | |
| LZ4TU-5 | 2026-08-31 17:55:15 | 44.15300 | 22.85638 | 101° | 57km/h | 14557m | 5.9m/s | -63.4°C | 21.6% | 0hPa | 0V | 00:00:00 | 00:00:00 | 00:00:00 | |
| LZ4TU-5 | 2026-08-31 17:55:10 | 44.15328 | 22.85545 | 109° | 58km/h | 14528m | 4.3m/s | -63.5°C | 21.9% | 0hPa | 0V | 00:00:00 | 00:00:00 | 00:00:00 | |
| LZ4TU-5 | 2026-08-31 17:53:55 | 44.15360 | 22.84206 | 116° | 51km/h | 14080m | 6.9m/s | -63.5°C | 23.8% | 0hPa | 0V | 00:00:00 | 00:00:00 | 00:00:00 | |
| LZ4TU-5 | 2026-08-31 17:53:50 | 44.15363 | 22.84158 | 87° | 20km/h | 14048m | 3.3m/s | -63.3°C | 23.9% | 0hPa | 0V | 00:00:00 | 00:00:00 | 00:00:00 | |
| LZ4TU-5 | 2026-08-31 17:52:37 | 44.15692 | 22.83143 | 123° | 58km/h | 13592m | 5.8m/s | -62.3°C | 22.8% | 0hPa | 0V | 00:00:00 | 00:00:00 | 00:00:00 | |
| LZ4TU-5 | 2026-08-31 17:52:33 | 44.15711 | 22.83082 | 98° | 37km/h | 13566m | 7.5m/s | -62.2°C | 0% | 0hPa | 0V | 00:00:00 | 00:00:00 | 00:00:00 | |
| LZ4TU-5 | 2026-08-31 17:51:18 | 44.16151 | 22.82055 | 123° | 53km/h | 13105m | 6.6m/s | -59.3°C | 22.7% | 0hPa | 0V | 00:00:00 | 00:00:00 | 00:00:00 | |
| LZ4TU-5 | 2026-08-31 17:51:13 | 44.16196 | 22.81986 | 147° | 44km/h | 13071m | 6.4m/s | -59.1°C | 22.7% | 0hPa | 0V | 00:00:00 | 00:00:00 | 00:00:00 | |
| LZ4TU-5 | 2026-08-31 17:51:08 | 44.16227 | 22.81932 | 107° | 53km/h | 13040m | 8.2m/s | -58.9°C | 22.8% | 0hPa | 0V | 00:00:00 | 00:00:00 | 00:00:00 | |
| LZ4TU-5 | 2026-08-31 17:49:53 | 44.16982 | 22.80597 | 125° | 68km/h | 12588m | 6.5m/s | -56.5°C | 32.7% | 0hPa | 0V | 00:00:00 | 00:00:00 | 00:00:00 | |
| LZ4TU-5 | 2026-08-31 17:49:48 | 44.17055 | 22.80505 | 136° | 97km/h | 12558m | 4.4m/s | -56.6°C | 34.1% | 0hPa | 0V | 00:00:00 | 00:00:00 | 00:00:00 | |
| LZ4TU-5 | 2026-08-31 17:48:35 | 44.18047 | 22.78539 | 117° | 91km/h | 12132m | 6.2m/s | -54.8°C | 35.5% | 0hPa | 0V | 00:00:00 | 00:00:00 | 00:00:00 | |
| LZ4TU-5 | 2026-08-31 17:48:31 | 44.18110 | 22.78390 | 129° | 104km/h | 12101m | 6.2m/s | -54.7°C | 35.6% | 0hPa | 0V | 00:00:00 | 00:00:00 | 00:00:00 | |
| LZ4TU-5 | 2026-08-31 17:47:17 | 44.19033 | 22.76336 | 129° | 93km/h | 11624m | 7.0m/s | -51.0°C | 35.4% | 0hPa | 0V | 00:00:00 | 00:00:00 | 00:00:00 | |
| LZ4TU-5 | 2026-08-31 17:47:12 | 44.19103 | 22.76203 | 119° | 99km/h | 11591m | 6.5m/s | -50.7°C | 35.8% | 0hPa | 0V | 00:00:00 | 00:00:00 | 00:00:00 | |
| LZ4TU-5 | 2026-08-31 17:45:58 | 44.19954 | 22.74249 | 126° | 86km/h | 11141m | 7.7m/s | -48.5°C | 0% | 0hPa | 0V | 00:00:00 | 00:00:00 | 00:00:00 | |
| LZ4TU-5 | 2026-08-31 17:45:53 | 44.20010 | 22.74123 | 118° | 88km/h | 11109m | 5.6m/s | -48.3°C | 48.2% | 0hPa | 0V | 00:00:00 | 00:00:00 | 00:00:00 | |
| LZ4TU-5 | 2026-08-31 17:44:39 | 44.20743 | 22.72175 | 111° | 80km/h | 10655m | 4.8m/s | -44.1°C | 37.5% | 0hPa | 0V | 00:00:00 | 00:00:00 | 00:00:00 | |
| LZ4TU-5 | 2026-08-31 17:44:34 | 44.20797 | 22.72049 | 124° | 84km/h | 10623m | 6.5m/s | -43.8°C | 37.0% | 0hPa | 0V | 00:00:00 | 00:00:00 | 00:00:00 | |
| LZ4TU-5 | 2026-08-31 17:43:19 | 44.21516 | 22.70118 | 109° | 89km/h | 10154m | 7.5m/s | -39.6°C | 28.0% | 0hPa | 0V | 00:00:00 | 00:00:00 | 00:00:00 | |
| LZ4TU-5 | 2026-08-31 17:43:14 | 44.21554 | 22.70005 | 132° | 57km/h | 10121m | 5.5m/s | -39.3°C | 27.3% | 0hPa | 0V | 00:00:00 | 00:00:00 | 00:00:00 | |
| LZ4TU-5 | 2026-08-31 17:42:00 | 44.22191 | 22.68342 | 110° | 80km/h | 9682m | 6.8m/s | -35.9°C | 25.3% | 0hPa | 0V | 00:00:00 | 00:00:00 | 00:00:00 | |
| LZ4TU-5 | 2026-08-31 17:41:56 | 44.22225 | 22.68253 | 121° | 53km/h | 9659m | 6.5m/s | -35.7°C | 24.3% | 0hPa | 0V | 00:00:00 | 00:00:00 | 00:00:00 | |
| LZ4TU-5 | 2026-08-31 17:41:51 | 44.22253 | 22.68162 | 112° | 80km/h | 9632m | 6.9m/s | -35.4°C | 23.8% | 0hPa | 0V | 00:00:00 | 00:00:00 | 00:00:00 | |
| LZ4TU-5 | 2026-08-31 17:41:46 | 44.22299 | 22.68030 | 121° | 69km/h | 9606m | 5.7m/s | -35.2°C | 0% | 0hPa | 0V | 00:00:00 | 00:00:00 | 00:00:00 | |
| LZ4TU-5 | 2026-08-31 17:40:22 | 44.22952 | 22.66269 | 141° | 68km/h | 9117m | 8.6m/s | -31.2°C | 17.9% | 0hPa | 0V | 00:00:00 | 00:00:00 | 00:00:00 | |
| LZ4TU-5 | 2026-08-31 17:40:18 | 44.22968 | 22.66220 | 88° | 46km/h | 9088m | 6.0m/s | -31.0°C | 18.2% | 0hPa | 0V | 00:00:00 | 00:00:00 | 00:00:00 | |
| LZ4TU-5 | 2026-08-31 17:39:05 | 44.23335 | 22.64945 | 128° | 44km/h | 8622m | 6.7m/s | -27.2°C | 19.5% | 0hPa | 0V | 00:00:00 | 00:00:00 | 00:00:00 | |
| LZ4TU-5 | 2026-08-31 17:39:00 | 44.23371 | 22.64878 | 105° | 62km/h | 8598m | 5.7m/s | -26.9°C | 19.2% | 0hPa | 0V | 00:00:00 | 00:00:00 | 00:00:00 | |
| LZ4TU-5 | 2026-08-31 17:37:45 | 44.23550 | 22.63516 | 114° | 49km/h | 8148m | 5.6m/s | -23.1°C | 16.0% | 0hPa | 0V | 00:00:00 | 00:00:00 | 00:00:00 | |
| LZ4TU-5 | 2026-08-31 17:36:23 | 44.23724 | 22.62234 | 74° | 58km/h | 7618m | 6.2m/s | -19.9°C | 15.6% | 0hPa | 0V | 00:00:00 | 00:00:00 | 00:00:00 | |
| LZ4TU-5 | 2026-08-31 17:36:18 | 44.23724 | 22.62145 | 122° | 46km/h | 7587m | 6.4m/s | -19.8°C | 16.5% | 0hPa | 0V | 00:00:00 | 00:00:00 | 00:00:00 | |
| LZ4TU-5 | 2026-08-31 17:35:11 | 44.23823 | 22.60952 | 92° | 29km/h | 7190m | 6.4m/s | -16.6°C | 17.5% | 0hPa | 0V | 00:00:00 | 00:00:00 | 00:00:00 | |
| LZ4TU-5 | 2026-08-31 17:35:06 | 44.23838 | 22.60867 | 99° | 71km/h | 7165m | 4.8m/s | -16.4°C | 17.6% | 0hPa | 0V | 00:00:00 | 00:00:00 | 00:00:00 | |
| LZ4TU-5 | 2026-08-31 17:33:38 | 44.23942 | 22.59532 | 89° | 57km/h | 6607m | 5.4m/s | -11.8°C | 9.8% | 0hPa | 0V | 00:00:00 | 00:00:00 | 00:00:00 | |
| LZ4TU-5 | 2026-08-31 17:33:33 | 44.23927 | 22.59440 | 84° | 33km/h | 6578m | 5.9m/s | -11.6°C | 0% | 0hPa | 0V | 00:00:00 | 00:00:00 | 00:00:00 | |
| LZ4TU-5 | 2026-08-31 17:32:29 | 44.23952 | 22.58589 | 66° | 29km/h | 6202m | 7.1m/s | -9.4°C | 11.0% | 0hPa | 0V | 00:00:00 | 00:00:00 | 00:00:00 | |
| LZ4TU-5 | 2026-08-31 17:32:24 | 44.23942 | 22.58558 | 128° | 24km/h | 6174m | 8.1m/s | -9.2°C | 12.1% | 0hPa | 0V | 00:00:00 | 00:00:00 | 00:00:00 | |
| LZ4TU-5 | 2026-08-31 17:31:23 | 44.24003 | 22.57640 | 110° | 33km/h | 5844m | 5.4m/s | -6.8°C | 9.5% | 0hPa | 0V | 00:00:00 | 00:00:00 | 00:00:00 | |
| LZ4TU-5 | 2026-08-31 17:31:18 | 44.24020 | 22.57582 | 100° | 57km/h | 5817m | 5.6m/s | -6.7°C | 0% | 0hPa | 0V | 00:00:00 | 00:00:00 | 00:00:00 | |
| LZ4TU-5 | 2026-08-31 17:30:17 | 44.24084 | 22.56690 | 99° | 44km/h | 5462m | 6.0m/s | -5.6°C | 19.4% | 0hPa | 0V | 00:00:00 | 00:00:00 | 00:00:00 | |
| LZ4TU-5 | 2026-08-31 17:30:12 | 44.24089 | 22.56608 | 63° | 37km/h | 5433m | 5.3m/s | -5.5°C | 22.1% | 0hPa | 0V | 00:00:00 | 00:00:00 | 00:00:00 | |
| LZ4TU-5 | 2026-08-31 17:29:10 | 44.24029 | 22.55873 | 65° | 15km/h | 5050m | 5.6m/s | -5.8°C | 31.5% | 0hPa | 0V | 00:00:00 | 00:00:00 | 00:00:00 | |
| LZ4TU-5 | 2026-08-31 17:29:06 | 44.24023 | 22.55830 | 92° | 55km/h | 5024m | 7.0m/s | -5.6°C | 0% | 0hPa | 0V | 00:00:00 | 00:00:00 | 00:00:00 | |
| LZ4TU-5 | 2026-08-31 17:28:00 | 44.24043 | 22.54917 | 62° | 27km/h | 4606m | 6.4m/s | -1.9°C | 18.8% | 0hPa | 0V | 00:00:00 | 00:00:00 | 00:00:00 | |
| LZ4TU-5 | 2026-08-31 17:26:59 | 44.24108 | 22.54027 | 104° | 64km/h | 4244m | 5.8m/s | 0.3°C | 29.6% | 0hPa | 0V | 00:00:00 | 00:00:00 | 00:00:00 | |
| LZ4TU-5 | 2026-08-31 17:26:54 | 44.24127 | 22.53951 | 93° | 29km/h | 4214m | 6.0m/s | 0.5°C | 0% | 0hPa | 0V | 00:00:00 | 00:00:00 | 00:00:00 | |
| LZ4TU-5 | 2026-08-31 17:25:51 | 44.24400 | 22.53045 | 97° | 51km/h | 3854m | 6.6m/s | 3.4°C | 18.6% | 0hPa | 0V | 00:00:00 | 00:00:00 | 00:00:00 | |
| LZ4TU-5 | 2026-08-31 17:25:46 | 44.24409 | 22.52953 | 113° | 40km/h | 3829m | 5.2m/s | 3.5°C | 17.9% | 0hPa | 0V | 00:00:00 | 00:00:00 | 00:00:00 | |
| LZ4TU-5 | 2026-08-31 17:25:41 | 44.24426 | 22.52903 | 108° | 26km/h | 3799m | 7.5m/s | 3.6°C | 16.7% | 0hPa | 0V | 00:00:00 | 00:00:00 | 00:00:00 | |
| LZ4TU-5 | 2026-08-31 17:24:22 | 44.24620 | 22.52176 | 83° | 9km/h | 3304m | 5.9m/s | 5.9°C | 65.8% | 0hPa | 0V | 00:00:00 | 00:00:00 | 00:00:00 | |
| LZ4TU-5 | 2026-08-31 17:24:17 | 44.24632 | 22.52152 | 108° | 26km/h | 3273m | 6.1m/s | 6.2°C | 64.8% | 0hPa | 0V | 00:00:00 | 00:00:00 | 00:00:00 | |
| LZ4TU-5 | 2026-08-31 17:22:56 | 44.24741 | 22.51749 | 72° | 13km/h | 2790m | 5.7m/s | 9.6°C | 75.2% | 0hPa | 0V | 00:00:00 | 00:00:00 | 00:00:00 | |
| LZ4TU-5 | 2026-08-31 17:22:51 | 44.24736 | 22.51741 | 102° | 5km/h | 2760m | 6.0m/s | 9.8°C | 0% | 0hPa | 0V | 00:00:00 | 00:00:00 | 00:00:00 | |
| LZ4TU-5 | 2026-08-31 17:21:56 | 44.24736 | 22.51647 | 219° | 4km/h | 2437m | 4.5m/s | 12.5°C | 60.8% | 0hPa | 0V | 00:00:00 | 00:00:00 | 00:00:00 | |
| LZ4TU-5 | 2026-08-31 17:21:51 | 44.24725 | 22.51629 | 56° | 22km/h | 2408m | 5.2m/s | 12.7°C | 61.2% | 0hPa | 0V | 00:00:00 | 00:00:00 | 00:00:00 | |
| LZ4TU-5 | 2026-08-31 17:20:51 | 44.24714 | 22.51603 | 347° | 18km/h | 2070m | 6.7m/s | 14.7°C | 61.3% | 0hPa | 0V | 00:00:00 | 00:00:00 | 00:00:00 | |
| LZ4TU-5 | 2026-08-31 17:20:46 | 44.24710 | 22.51623 | 289° | 18km/h | 2041m | 7.0m/s | 14.8°C | 0% | 0hPa | 0V | 00:00:00 | 00:00:00 | 00:00:00 | |
| LZ4TU-5 | 2026-08-31 17:19:46 | 44.24590 | 22.51929 | 309° | 26km/h | 1694m | 6.3m/s | 17.7°C | 51.7% | 0hPa | 0V | 00:00:00 | 00:00:00 | 00:00:00 | |
| LZ4TU-5 | 2026-08-31 17:19:41 | 44.24586 | 22.51960 | 296° | 13km/h | 1667m | 5.1m/s | 18.0°C | 51.2% | 0hPa | 0V | 00:00:00 | 00:00:00 | 00:00:00 | |
| LZ4TU-5 | 2026-08-31 17:18:41 | 44.24454 | 22.52292 | 325° | 33km/h | 1323m | 6.0m/s | 21.2°C | 45.8% | 0hPa | 0V | 00:00:00 | 00:00:00 | 00:00:00 | |
| LZ4TU-5 | 2026-08-31 17:18:37 | 44.24433 | 22.52328 | 298° | 18km/h | 1303m | 5.8m/s | 21.4°C | 45.4% | 0hPa | 0V | 00:00:00 | 00:00:00 | 00:00:00 | |
| LZ4TU-5 | 2026-08-31 17:18:31 | 44.24420 | 22.52360 | 292° | 26km/h | 1267m | 5.8m/s | 21.7°C | 44.7% | 0hPa | 0V | 00:00:00 | 00:00:00 | 00:00:00 | |
| LZ4TU-5 | 2026-08-31 17:18:24 | 44.24404 | 22.52403 | 301° | 15km/h | 1228m | 5.6m/s | 22.1°C | 0% | 0hPa | 0V | 00:00:00 | 00:00:00 | 00:00:00 |